Time;durP1;ratioP1;P1;durP2;ratioP2;P2;SDS_P1;SDS_P2;PMS_P1;PMS_P2;Temp;Humidity;BMP_temperature;BMP_pressure;BME280_temperature;BME280_humidity;BME280_pressure;Samples;Min_cycle;Max_cycle;Signal;HPM_P1;HPM_P2
2022/01/26 00:00:42;;;;;;;13.80;6.90;;;;;;;1.26;100.00;100468.05;103607;1300;24304;-29
2022/01/26 00:08:06;;;;;;;14.80;7.30;;;;;;;1.36;100.00;100461.11;103494;1300;24216;-25
2022/01/26 00:10:34;;;;;;;9.40;6.40;;;;;;;1.31;100.00;100463.10;103528;1302;24289;-25
2022/01/26 00:12:59;;;;;;;14.60;9.50;;;;;;;1.21;100.00;100464.32;103537;1300;22533;-30
2022/01/26 00:15:27;;;;;;;14.30;7.70;;;;;;;1.18;100.00;100463.14;103487;1300;24165;-30
2022/01/26 00:17:54;;;;;;;5.90;4.60;;;;;;;1.10;100.00;100463.17;103521;1300;24252;-30
2022/01/26 00:20:25;;;;;;;15.50;6.60;;;;;;;1.34;100.00;100460.04;103567;1300;24355;-25
2022/01/26 00:40:21;;;;;;;13.90;8.50;;;;;;;1.17;100.00;100436.02;103516;1300;24385;-30
2022/01/26 00:42:49;;;;;;;10.50;5.80;;;;;;;1.05;100.00;100436.23;103505;1300;24198;-30
2022/01/26 00:45:21;;;;;;;10.80;7.50;;;;;;;1.32;100.00;100435.46;103527;1300;24319;-30
2022/01/26 00:47:46;;;;;;;9.10;6.40;;;;;;;1.18;100.00;100434.25;103528;1302;24303;-25
2022/01/26 00:50:12;;;;;;;15.40;10.30;;;;;;;1.15;100.00;100436.35;103518;1302;24266;-25
2022/01/26 00:52:41;;;;;;;10.20;8.00;;;;;;;1.38;100.00;100432.94;103488;1300;24326;-25
2022/01/26 00:55:09;;;;;;;22.40;9.70;;;;;;;1.61;100.00;100439.38;103627;1300;24207;-30
2022/01/26 00:57:34;;;;;;;15.90;8.90;;;;;;;1.31;100.00;100439.09;103487;1302;24333;-25
2022/01/26 01:00:03;;;;;;;25.30;5.00;;;;;;;1.26;100.00;100441.54;103506;1300;22517;-25
2022/01/26 01:02:30;;;;;;;26.00;12.90;;;;;;;1.21;100.00;100435.60;103578;1300;24325;-29
2022/01/26 01:04:58;;;;;;;18.70;10.60;;;;;;;1.13;100.00;100432.46;103457;1302;24267;-25
2022/01/26 01:07:24;;;;;;;13.00;8.00;;;;;;;1.47;100.00;100427.86;103624;1300;24841;-26
2022/01/26 01:09:50;;;;;;;26.80;15.40;;;;;;;1.01;100.00;100430.30;103526;1300;24251;-29
2022/01/26 01:12:15;;;;;;;18.90;9.80;;;;;;;1.26;100.00;100428.71;103451;1302;24254;-25
2022/01/26 01:14:43;;;;;;;14.90;8.80;;;;;;;1.49;100.00;100428.59;103554;1300;24219;-24
2022/01/26 01:17:19;;;;;;;15.20;8.00;;;;;;;1.27;100.00;100421.57;103559;1300;24211;-26
2022/01/26 01:20:05;;;;;;;12.10;7.80;;;;;;;1.36;100.00;100421.77;103567;1300;24930;-25
2022/01/26 01:27:46;;;;;;;12.40;10.40;;;;;;;1.28;100.00;100415.52;103515;1300;24197;-25
2022/01/26 01:30:26;;;;;;;10.20;7.70;;;;;;;1.33;100.00;100415.15;103592;1300;22530;-26
2022/01/26 01:33:03;;;;;;;9.80;6.60;;;;;;;1.42;100.00;100412.03;103538;1300;22636;-25
2022/01/26 01:35:31;;;;;;;12.70;8.30;;;;;;;1.32;100.00;100414.00;103495;1300;24228;-30
2022/01/26 01:37:58;;;;;;;12.00;7.20;;;;;;;1.25;100.00;100410.91;103560;1300;24288;-30
2022/01/26 01:40:24;;;;;;;8.30;6.20;;;;;;;1.45;100.00;100412.79;103520;1302;24426;-25
2022/01/26 01:42:50;;;;;;;12.30;7.50;;;;;;;1.24;100.00;100408.23;103558;1300;24269;-25
2022/01/26 01:45:15;;;;;;;12.10;8.30;;;;;;;1.10;100.00;100408.21;103521;1300;24274;-29
2022/01/26 01:47:41;;;;;;;8.00;7.00;;;;;;;1.18;100.00;100408.67;103511;1300;24230;-24
2022/01/26 01:50:11;;;;;;;12.60;10.20;;;;;;;1.38;100.00;100403.69;103533;1300;24194;-32
2022/01/26 01:52:37;;;;;;;14.90;8.30;;;;;;;1.48;100.00;100400.10;103590;1300;22522;-29
2022/01/26 01:55:04;;;;;;;17.00;7.70;;;;;;;1.69;100.00;100403.64;103476;1300;24346;-25
2022/01/26 01:57:30;;;;;;;15.10;9.00;;;;;;;1.37;100.00;100403.70;103555;1302;24442;-30
2022/01/26 01:59:56;;;;;;;14.90;9.60;;;;;;;1.33;100.00;100402.95;103535;1300;24207;-25
2022/01/26 02:02:22;;;;;;;10.40;8.60;;;;;;;1.46;100.00;100396.55;103477;1300;24256;-25
2022/01/26 02:04:48;;;;;;;12.10;5.30;;;;;;;1.57;100.00;100391.98;103323;1301;24189;-23
2022/01/26 02:07:14;;;;;;;10.40;2.80;;;;;;;1.54;100.00;100393.30;103513;1300;24213;-29
2022/01/26 02:09:40;;;;;;;11.30;4.70;;;;;;;1.56;100.00;100395.23;103596;1300;24257;-29
2022/01/26 02:12:16;;;;;;;10.80;7.30;;;;;;;1.46;99.83;100391.35;103485;1300;22551;-27
2022/01/26 02:14:48;;;;;;;10.20;7.90;;;;;;;1.51;100.00;100397.77;103549;1300;22675;-30
2022/01/26 02:17:29;;;;;;;14.50;7.50;;;;;;;1.33;100.00;100394.15;103479;1300;24197;-29
2022/01/26 02:52:19;;;;;;;16.60;11.40;;;;;;;1.48;100.00;100380.88;103573;1300;24294;-27
2022/01/26 03:05:01;;;;;;;10.60;7.00;;;;;;;1.14;100.00;100376.65;103523;1300;24305;-29
2022/01/26 03:10:03;;;;;;;8.00;6.60;;;;;;;1.26;100.00;100378.25;103518;1300;24241;-30
2022/01/26 03:12:39;;;;;;;8.10;3.50;;;;;;;1.09;100.00;100373.34;103486;1302;24334;-29
2022/01/26 03:15:14;;;;;;;10.40;6.40;;;;;;;1.19;100.00;100374.16;103529;1300;22638;-29
2022/01/26 03:20:13;;;;;;;13.50;8.80;;;;;;;1.41;100.00;100373.59;103536;1300;25370;-29
2022/01/26 03:37:55;;;;;;;14.50;7.10;;;;;;;1.41;100.00;100372.02;103604;1299;24189;-25
2022/01/26 03:40:30;;;;;;;9.80;7.60;;;;;;;1.27;100.00;100368.64;103556;1300;24289;-31
2022/01/26 03:42:57;;;;;;;6.70;3.90;;;;;;;1.47;100.00;100369.79;103510;1300;22959;-30
2022/01/26 03:45:22;;;;;;;9.10;6.80;;;;;;;1.39;99.72;100371.66;103548;1300;24202;-30
2022/01/26 03:47:48;;;;;;;9.10;5.10;;;;;;;1.15;100.00;100365.44;103520;1301;24184;-26
2022/01/26 03:50:14;;;;;;;14.10;11.10;;;;;;;1.27;100.00;100368.82;103516;1300;24163;-31
2022/01/26 03:52:39;;;;;;;21.50;6.30;;;;;;;1.29;100.00;100369.20;103489;1300;22518;-24
2022/01/26 03:55:05;;;;;;;7.10;4.60;;;;;;;1.50;99.80;100366.77;103515;1300;24313;-25
2022/01/26 03:57:32;;;;;;;7.60;5.50;;;;;;;1.42;99.88;100372.48;103497;1301;24207;-30
2022/01/26 03:59:57;;;;;;;5.40;4.20;;;;;;;1.33;99.92;100371.89;103490;1300;24226;-25
2022/01/26 04:02:23;;;;;;;4.70;3.40;;;;;;;1.31;99.65;100375.02;103538;1300;22844;-30
2022/01/26 04:04:55;;;;;;;12.90;5.80;;;;;;;1.41;99.91;100373.80;103636;1302;24213;-39
2022/01/26 04:07:21;;;;;;;9.90;7.80;;;;;;;1.15;100.00;100373.38;103528;1300;24528;-25
2022/01/26 04:09:46;;;;;;;11.60;6.00;;;;;;;1.41;99.99;100373.95;103175;1300;417398;-26
2022/01/26 04:12:12;;;;;;;7.10;4.00;;;;;;;1.25;100.00;100373.41;103488;1301;24135;-29
2022/01/26 04:14:39;;;;;;;16.80;5.60;;;;;;;0.93;100.00;100373.11;103460;1300;24248;-24
2022/01/26 04:17:05;;;;;;;8.30;5.80;;;;;;;1.08;100.00;100376.35;103518;1300;24226;-24
2022/01/26 04:19:34;;;;;;;10.10;7.70;;;;;;;1.30;100.00;100377.05;103625;1300;24283;-26
2022/01/26 04:24:36;;;;;;;12.40;6.60;;;;;;;1.28;100.00;100380.56;103566;1300;24309;-30
2022/01/26 04:27:16;;;;;;;9.10;5.50;;;;;;;1.16;100.00;100376.19;103558;1300;23878;-24
2022/01/26 04:29:42;;;;;;;17.50;12.00;;;;;;;1.21;100.00;100371.40;103610;1300;24291;-30
2022/01/26 04:32:08;;;;;;;13.50;10.20;;;;;;;1.32;100.00;100375.54;103526;1300;24289;-29
2022/01/26 04:34:35;;;;;;;8.50;5.30;;;;;;;1.31;100.00;100368.85;103546;1300;24325;-31
2022/01/26 04:39:32;;;;;;;8.80;6.00;;;;;;;1.15;100.00;100371.65;103587;1300;22752;-29
2022/01/26 04:42:03;;;;;;;13.40;7.00;;;;;;;1.29;100.00;100372.91;103559;1300;24311;-24
2022/01/26 04:44:36;;;;;;;11.00;8.60;;;;;;;1.23;100.00;100372.11;103488;1300;24251;-29
2022/01/26 04:47:02;;;;;;;11.10;7.90;;;;;;;1.06;100.00;100371.29;103561;1300;24343;-24
2022/01/26 04:49:28;;;;;;;10.30;6.60;;;;;;;1.10;100.00;100375.73;103488;1300;24341;-32
2022/01/26 04:51:54;;;;;;;7.90;4.50;;;;;;;1.01;100.00;100370.01;103495;1301;24215;-32
2022/01/26 04:54:19;;;;;;;10.80;6.00;;;;;;;0.93;100.00;100367.24;103560;1300;24198;-24
2022/01/26 04:56:45;;;;;;;7.80;5.00;;;;;;;1.25;100.00;100370.16;103508;1300;24328;-32
2022/01/26 04:59:11;;;;;;;8.70;5.90;;;;;;;1.25;100.00;100368.40;103539;1302;24192;-29
2022/01/26 05:01:37;;;;;;;20.10;8.00;;;;;;;1.02;100.00;100364.13;103520;1300;24225;-32
2022/01/26 05:04:03;;;;;;;15.00;6.80;;;;;;;1.30;100.00;100360.64;103518;1302;22522;-28
2022/01/26 05:06:29;;;;;;;13.80;7.20;;;;;;;1.19;100.00;100362.69;103457;1302;24188;-26
2022/01/26 05:08:54;;;;;;;11.40;7.70;;;;;;;1.14;100.00;100360.23;103551;1303;24334;-26
2022/01/26 05:11:32;;;;;;;10.50;6.40;;;;;;;1.32;100.00;100363.81;103592;1300;24186;-24
2022/01/26 05:13:58;;;;;;;18.70;6.80;;;;;;;1.31;100.00;100363.08;103393;1299;24253;-30
2022/01/26 05:16:24;;;;;;;7.60;5.60;;;;;;;1.59;99.84;100357.77;103548;1300;24378;-25
2022/01/26 05:18:50;;;;;;;13.50;9.90;;;;;;;1.44;99.73;100361.17;103559;1300;22775;-25
2022/01/26 05:21:16;;;;;;;4.70;3.30;;;;;;;1.40;99.95;100355.86;103565;1300;24443;-30
2022/01/26 05:23:42;;;;;;;16.60;11.80;;;;;;;1.37;100.00;100348.86;103520;1303;24249;-26
2022/01/26 05:26:08;;;;;;;13.80;10.00;;;;;;;1.55;99.92;100348.73;103600;1299;24227;-25
2022/01/26 05:28:33;;;;;;;11.10;9.70;;;;;;;1.53;99.36;100347.14;103575;1300;24325;-25
2022/01/26 05:30:59;;;;;;;14.90;9.60;;;;;;;1.35;99.85;100350.42;103586;1300;24329;-25
2022/01/26 05:33:25;;;;;;;7.90;4.60;;;;;;;1.37;100.00;100347.77;103588;1300;24249;-30
2022/01/26 05:35:51;;;;;;;7.10;4.70;;;;;;;1.26;100.00;100345.44;103495;1300;24217;-30
2022/01/26 05:38:17;;;;;;;12.50;6.60;;;;;;;1.32;100.00;100350.45;103585;1300;24205;-25
2022/01/26 05:40:42;;;;;;;8.00;5.00;;;;;;;1.11;100.00;100351.13;103574;1300;24150;-25
2022/01/26 05:43:08;;;;;;;4.50;3.40;;;;;;;1.19;100.00;100350.52;103543;1300;24249;-25
2022/01/26 05:45:37;;;;;;;11.80;8.30;;;;;;;1.16;100.00;100346.88;103606;1300;24350;-25
2022/01/26 05:48:08;;;;;;;10.10;8.10;;;;;;;1.28;100.00;100345.42;103627;1300;24316;-30
2022/01/26 05:50:34;;;;;;;9.00;5.80;;;;;;;1.46;100.00;100342.21;103553;1303;24270;-30
2022/01/26 05:52:59;;;;;;;9.50;7.20;;;;;;;1.54;100.00;100343.00;103552;1300;24243;-26
2022/01/26 05:55:25;;;;;;;8.60;5.20;;;;;;;1.43;100.00;100345.91;103686;1300;24170;-32
2022/01/26 05:57:51;;;;;;;11.10;6.50;;;;;;;1.21;100.00;100343.87;103577;1300;24332;-25
2022/01/26 06:00:17;;;;;;;7.10;6.30;;;;;;;1.03;100.00;100347.46;103677;1300;24305;-25
2022/01/26 06:02:42;;;;;;;13.50;9.60;;;;;;;1.32;100.00;100343.39;103613;1300;24224;-30
2022/01/26 06:05:09;;;;;;;12.50;10.30;;;;;;;1.53;100.00;100341.65;103623;1300;24204;-30
2022/01/26 06:07:35;;;;;;;5.00;3.90;;;;;;;1.54;99.90;100342.40;103618;1298;24384;-30
2022/01/26 06:10:00;;;;;;;15.30;9.90;;;;;;;1.40;100.00;100342.43;103587;1300;24310;-30
2022/01/26 06:12:26;;;;;;;10.00;6.60;;;;;;;1.59;99.80;100339.77;103561;1300;24284;-29
2022/01/26 06:14:52;;;;;;;11.30;5.70;;;;;;;1.35;100.00;100340.34;103645;1300;24347;-31
2022/01/26 06:17:18;;;;;;;11.90;5.20;;;;;;;1.46;99.99;100331.92;103494;1300;24221;-27
2022/01/26 06:19:44;;;;;;;9.50;7.20;;;;;;;1.13;100.00;100337.95;103623;1300;24291;-31
2022/01/26 06:22:10;;;;;;;6.20;4.90;;;;;;;1.29;100.00;100337.12;103530;1300;24185;-32
2022/01/26 06:24:35;;;;;;;5.50;4.00;;;;;;;1.28;100.00;100338.06;103493;1300;24129;-25
2022/01/26 06:27:01;;;;;;;5.30;4.20;;;;;;;1.26;100.00;100331.13;103578;1300;24366;-30
2022/01/26 06:29:27;;;;;;;12.60;5.20;;;;;;;1.41;100.00;100333.54;103504;1300;24229;-25
2022/01/26 06:31:53;;;;;;;9.10;6.50;;;;;;;1.50;99.84;100332.47;103383;1301;24321;-25
2022/01/26 06:34:20;;;;;;;12.60;7.00;;;;;;;1.42;100.00;100331.84;103458;1301;24303;-25
2022/01/26 06:36:45;;;;;;;8.70;6.10;;;;;;;1.23;100.00;100329.91;103569;1300;24299;-25
2022/01/26 06:39:12;;;;;;;4.50;2.90;;;;;;;1.27;100.00;100329.45;103543;1300;24360;-29
2022/01/26 06:41:39;;;;;;;2.20;1.20;;;;;;;1.31;100.00;100330.27;103643;1301;23137;-30
2022/01/26 06:44:17;;;;;;;6.20;3.30;;;;;;;1.50;100.00;100323.16;103585;1300;24281;-32
2022/01/26 06:46:56;;;;;;;8.80;7.60;;;;;;;1.38;100.00;100321.98;103440;1300;24198;-29
2022/01/26 06:51:49;;;;;;;7.50;4.10;;;;;;;1.46;100.00;100315.55;103553;1300;25402;-24
2022/01/26 06:54:15;;;;;;;6.00;4.00;;;;;;;1.26;100.00;100320.03;103596;1300;22512;-30
2022/01/26 06:56:40;;;;;;;22.60;6.00;;;;;;;1.39;100.00;100315.84;103582;1300;24220;-30
2022/01/26 06:59:06;;;;;;;12.70;4.50;;;;;;;1.34;100.00;100312.20;103577;1302;22506;-25
2022/01/26 07:01:32;;;;;;;8.90;5.40;;;;;;;1.56;100.00;100316.15;103567;1300;24344;-30
2022/01/26 07:03:58;;;;;;;10.30;6.20;;;;;;;1.26;100.00;100319.70;103466;1300;24250;-30
2022/01/26 07:06:23;;;;;;;7.60;6.20;;;;;;;1.48;100.00;100313.43;103429;1300;24198;-27
2022/01/26 07:08:49;;;;;;;3.10;2.80;;;;;;;1.54;99.90;100317.73;103569;1300;24337;-30
2022/01/26 07:11:15;;;;;;;7.60;3.20;;;;;;;1.63;99.85;100316.54;103526;1300;24240;-30
2022/01/26 07:13:42;;;;;;;4.00;2.80;;;;;;;1.52;99.75;100315.11;103505;1300;24223;-30
2022/01/26 07:23:32;;;;;;;6.70;5.30;;;;;;;1.68;99.49;100315.61;103556;1300;24342;-30
2022/01/26 07:25:57;;;;;;;11.00;8.80;;;;;;;1.51;99.51;100318.84;103577;1300;22529;-30
2022/01/26 07:28:23;;;;;;;12.20;6.30;;;;;;;1.58;99.93;100311.80;103508;1300;24329;-30
2022/01/26 07:30:50;;;;;;;7.80;5.80;;;;;;;1.42;100.00;100316.56;103535;1301;24177;-26
2022/01/26 07:33:16;;;;;;;6.60;4.30;;;;;;;1.56;100.00;100315.10;103557;1302;24185;-26
2022/01/26 07:35:42;;;;;;;5.80;4.20;;;;;;;1.55;100.00;100316.63;103560;1300;22639;-30
2022/01/26 07:38:08;;;;;;;9.70;7.90;;;;;;;1.53;100.00;100317.45;103587;1299;24208;-26
2022/01/26 07:40:34;;;;;;;5.10;2.00;;;;;;;1.66;99.40;100319.26;103585;1302;24222;-29
2022/01/26 07:42:59;;;;;;;8.20;4.10;;;;;;;1.64;99.69;100318.93;103494;1300;24536;-25
2022/01/26 07:45:25;;;;;;;5.40;4.20;;;;;;;1.57;99.97;100320.35;103527;1300;24201;-24
2022/01/26 07:47:54;;;;;;;9.00;8.10;;;;;;;1.43;99.94;100322.30;103532;1302;24227;-25
2022/01/26 07:50:21;;;;;;;8.30;7.40;;;;;;;1.42;100.00;100321.30;103556;1300;24296;-30
2022/01/26 07:52:46;;;;;;;6.00;3.30;;;;;;;1.75;99.66;100319.52;103529;1300;24531;-24
2022/01/26 07:55:15;;;;;;;7.00;5.40;;;;;;;1.70;99.37;100318.16;103525;1300;23899;-29
2022/01/26 07:57:43;;;;;;;7.70;5.70;;;;;;;1.47;99.92;100321.46;103563;1300;24238;-31
2022/01/26 08:00:10;;;;;;;9.90;7.40;;;;;;;1.54;99.91;100324.81;103510;1300;24444;-25
2022/01/26 08:02:36;;;;;;;4.30;2.90;;;;;;;1.87;99.27;100325.64;103601;1300;24280;-25
2022/01/26 08:05:01;;;;;;;36.10;18.40;;;;;;;1.74;99.57;100326.11;103529;1300;24406;-24
2022/01/26 08:07:27;;;;;;;7.40;5.10;;;;;;;1.64;99.45;100330.02;103573;1300;22777;-24
2022/01/26 08:09:53;;;;;;;11.10;7.80;;;;;;;1.50;100.00;100327.77;103537;1300;24216;-30
2022/01/26 08:12:18;;;;;;;9.40;5.90;;;;;;;1.72;99.83;100328.02;103484;1301;24288;-28
2022/01/26 08:14:45;;;;;;;8.90;7.80;;;;;;;1.70;99.37;100330.32;103600;1300;24291;-27
2022/01/26 08:17:11;;;;;;;7.60;5.00;;;;;;;1.55;99.66;100334.25;103451;1300;24448;-27
2022/01/26 08:19:36;;;;;;;8.90;6.40;;;;;;;1.51;100.00;100332.40;103610;1300;24362;-31
2022/01/26 08:22:03;;;;;;;10.30;7.00;;;;;;;1.37;100.00;100331.71;103498;1301;24323;-29
2022/01/26 08:24:29;;;;;;;9.00;5.80;;;;;;;1.48;100.00;100333.75;103608;1300;24322;-25
2022/01/26 08:27:00;;;;;;;8.70;5.00;;;;;;;1.82;99.53;100325.63;103524;1299;24330;-30
2022/01/26 08:29:31;;;;;;;10.90;7.40;;;;;;;1.97;98.00;100325.05;103593;1300;22649;-25
2022/01/26 08:31:58;;;;;;;9.90;7.70;;;;;;;1.77;98.58;100323.59;103445;1301;24245;-30
2022/01/26 08:34:24;;;;;;;10.50;6.60;;;;;;;1.84;98.67;100328.88;103558;1300;24329;-30
2022/01/26 08:36:49;;;;;;;7.10;5.50;;;;;;;1.60;99.12;100329.81;103504;1300;24322;-30
2022/01/26 08:39:15;;;;;;;9.70;6.10;;;;;;;1.55;99.96;100327.17;103535;1300;24230;-24
2022/01/26 08:41:42;;;;;;;8.60;6.00;;;;;;;1.66;99.92;100329.70;103534;1300;24188;-25
2022/01/26 08:44:07;;;;;;;15.10;7.20;;;;;;;1.33;100.00;100329.74;103552;1300;24787;-30
2022/01/26 08:46:33;;;;;;;9.30;5.10;;;;;;;1.41;100.00;100327.71;103507;1302;22712;-25
2022/01/26 08:48:59;;;;;;;9.70;4.90;;;;;;;1.66;100.00;100328.14;103538;1300;24311;-30
2022/01/26 08:51:25;;;;;;;9.00;6.50;;;;;;;1.72;99.83;100328.56;103536;1300;22786;-30
2022/01/26 08:53:51;;;;;;;29.10;11.60;;;;;;;1.76;99.60;100329.82;103484;1302;24167;-31
2022/01/26 08:56:16;;;;;;;11.60;7.20;;;;;;;1.75;99.14;100323.92;103616;1300;24215;-29
2022/01/26 08:58:42;;;;;;;13.70;10.80;;;;;;;1.77;99.74;100324.77;103525;1300;24174;-25
2022/01/26 09:01:08;;;;;;;10.30;5.70;;;;;;;1.61;99.56;100328.31;103590;1300;24128;-25
2022/01/26 09:03:39;;;;;;;17.60;9.50;;;;;;;1.50;100.00;100329.49;103493;1300;24225;-30
2022/01/26 09:06:06;;;;;;;4.00;3.00;;;;;;;1.74;99.91;100328.22;103607;1300;24227;-30
2022/01/26 09:08:33;;;;;;;9.30;5.20;;;;;;;1.67;100.00;100326.65;103557;1300;24174;-25
2022/01/26 09:11:01;;;;;;;6.60;5.50;;;;;;;1.82;99.66;100330.06;103511;1300;24430;-30
2022/01/26 09:13:31;;;;;;;10.00;7.40;;;;;;;1.68;99.97;100332.58;103689;1302;24235;-25
2022/01/26 09:15:58;;;;;;;4.80;4.30;;;;;;;1.79;99.94;100331.90;103603;1302;24307;-25
2022/01/26 09:18:34;;;;;;;15.60;8.00;;;;;;;1.59;100.00;100333.92;103331;1302;26154;-25
2022/01/26 09:20:59;;;;;;;11.00;7.20;;;;;;;1.67;100.00;100337.63;103524;1300;22519;-30
2022/01/26 09:23:26;;;;;;;8.50;6.10;;;;;;;1.75;100.00;100335.58;103630;1300;24259;-24
2022/01/26 09:25:51;;;;;;;10.80;4.60;;;;;;;1.82;99.96;100332.37;103406;1302;24299;-24
2022/01/26 09:28:17;;;;;;;8.60;5.90;;;;;;;1.75;100.00;100328.83;103633;1300;24264;-25
2022/01/26 09:30:43;;;;;;;8.50;7.00;;;;;;;1.82;100.00;100330.45;103552;1300;24310;-25
2022/01/26 09:33:08;;;;;;;9.00;5.40;;;;;;;1.74;100.00;100329.97;103666;1300;24175;-30
2022/01/26 09:35:35;;;;;;;7.50;5.00;;;;;;;1.68;100.00;100331.67;103699;1300;22746;-25
2022/01/26 09:38:01;;;;;;;7.80;4.40;;;;;;;1.66;100.00;100323.33;103606;1300;24264;-30
2022/01/26 09:40:27;;;;;;;7.80;5.60;;;;;;;1.52;100.00;100322.28;103596;1300;22505;-26
2022/01/26 09:42:55;;;;;;;20.90;8.60;;;;;;;1.67;100.00;100323.95;103518;1300;24203;-25
2022/01/26 09:45:20;;;;;;;6.70;4.60;;;;;;;1.92;100.00;100324.02;103588;1300;24267;-25
2022/01/26 09:47:46;;;;;;;8.40;7.10;;;;;;;1.64;100.00;100317.47;103578;1300;24210;-31
2022/01/26 09:50:12;;;;;;;8.30;4.10;;;;;;;1.70;100.00;100315.48;103606;1300;24162;-24
2022/01/26 09:52:45;;;;;;;8.50;5.50;;;;;;;1.89;100.00;100315.27;103689;1300;24207;-24
2022/01/26 09:55:11;;;;;;;10.60;7.40;;;;;;;1.93;100.00;100312.98;103587;1300;22620;-30
2022/01/26 09:57:38;;;;;;;6.30;4.80;;;;;;;2.13;99.29;100312.52;103580;1300;24179;-30
2022/01/26 10:00:05;;;;;;;6.60;3.50;;;;;;;2.11;99.32;100317.09;103547;1299;24321;-27
2022/01/26 10:02:32;;;;;;;18.90;8.10;;;;;;;1.98;99.77;100309.66;103709;1300;24186;-26
2022/01/26 10:05:03;;;;;;;14.20;7.40;;;;;;;1.99;99.62;100307.02;103642;1298;24204;-30
2022/01/26 10:07:47;;;;;;;5.50;3.30;;;;;;;1.91;99.99;100310.88;103636;1303;24216;-25
2022/01/26 10:17:40;;;;;;;9.00;4.60;;;;;;;2.06;99.93;100299.63;103713;1300;24352;-26
2022/01/26 10:20:07;;;;;;;11.60;8.00;;;;;;;2.15;99.04;100295.40;103835;1300;23958;-30
2022/01/26 10:22:34;;;;;;;7.80;6.10;;;;;;;2.11;99.53;100301.21;103775;1300;24351;-31
2022/01/26 10:25:04;;;;;;;7.50;6.80;;;;;;;2.02;98.93;100296.00;103677;1300;24221;-24
2022/01/26 10:27:35;;;;;;;12.00;5.90;;;;;;;2.01;99.72;100296.14;103558;1302;24214;-31
2022/01/26 10:30:05;;;;;;;7.60;6.50;;;;;;;2.16;99.15;100292.27;103550;1300;24200;-27
2022/01/26 10:32:33;;;;;;;8.60;5.20;;;;;;;1.87;99.79;100294.02;103575;1300;22554;-32
2022/01/26 10:35:01;;;;;;;8.80;7.30;;;;;;;1.96;99.78;100292.95;103496;1302;24233;-24
2022/01/26 10:37:27;;;;;;;13.80;11.50;;;;;;;1.82;99.59;100294.73;103526;1302;22804;-30
2022/01/26 10:39:56;;;;;;;12.80;9.30;;;;;;;1.85;100.00;100290.30;103639;1300;24185;-30
2022/01/26 10:42:24;;;;;;;9.40;6.60;;;;;;;2.06;99.74;100285.98;103609;1300;24183;-25
2022/01/26 10:45:03;;;;;;;28.80;17.70;;;;;;;1.83;99.95;100283.44;103732;1302;24216;-26
2022/01/26 10:47:34;;;;;;;16.70;8.40;;;;;;;1.97;100.00;100284.41;103653;1302;24150;-27
2022/01/26 10:52:35;;;;;;;22.00;13.80;;;;;;;2.39;97.80;100272.79;103534;1300;24220;-25
2022/01/26 10:55:01;;;;;;;18.50;5.90;;;;;;;2.19;97.85;100270.30;103502;1302;24175;-30
2022/01/26 10:57:28;;;;;;;25.60;7.80;;;;;;;2.10;98.59;100273.70;103519;1300;24291;-30
2022/01/26 10:59:54;;;;;;;31.50;14.50;;;;;;;2.03;98.82;100268.61;103572;1300;24261;-31
2022/01/26 11:02:25;;;;;;;37.60;19.80;;;;;;;2.22;98.81;100266.25;103539;1300;24215;-24
2022/01/26 11:04:51;;;;;;;22.50;10.20;;;;;;;2.17;98.30;100262.70;103599;1300;24190;-24
2022/01/26 11:07:17;;;;;;;16.60;10.40;;;;;;;2.03;99.01;100256.38;103570;1300;24227;-24
2022/01/26 11:09:45;;;;;;;22.00;11.80;;;;;;;2.30;97.90;100265.86;103532;1300;24213;-25
2022/01/26 11:12:13;;;;;;;14.10;8.90;;;;;;;2.37;97.88;100269.22;103538;1300;24359;-25
2022/01/26 11:14:42;;;;;;;15.50;10.00;;;;;;;2.61;97.01;100263.83;103518;1302;24235;-24
2022/01/26 11:17:08;;;;;;;13.40;8.60;;;;;;;2.25;97.51;100265.64;103556;1300;24342;-29
2022/01/26 11:19:39;;;;;;;12.20;6.60;;;;;;;2.23;98.04;100265.77;103607;1300;24249;-25
2022/01/26 11:22:07;;;;;;;6.00;3.90;;;;;;;2.17;99.46;100265.39;103591;1300;24271;-26
2022/01/26 11:24:41;;;;;;;17.20;8.10;;;;;;;2.27;98.40;100263.52;103595;1300;24374;-25
2022/01/26 11:27:07;;;;;;;7.10;4.40;;;;;;;2.24;98.31;100262.51;103603;1300;22515;-30
2022/01/26 11:29:35;;;;;;;12.40;8.40;;;;;;;2.29;98.10;100261.25;103559;1300;24214;-29
2022/01/26 11:32:07;;;;;;;12.30;6.40;;;;;;;2.09;98.80;100260.16;103644;1300;24232;-29
2022/01/26 11:34:34;;;;;;;11.30;7.40;;;;;;;2.27;98.42;100266.12;103683;1300;22750;-26
2022/01/26 11:37:02;;;;;;;10.90;6.30;;;;;;;2.27;98.77;100256.79;103703;1300;24155;-29
2022/01/26 11:46:59;;;;;;;10.50;4.80;;;;;;;2.13;98.28;100250.14;103392;1301;24218;-24
2022/01/26 11:49:27;;;;;;;11.00;6.80;;;;;;;2.06;99.07;100247.88;103541;1300;24173;-29
2022/01/26 11:51:56;;;;;;;7.70;6.00;;;;;;;2.31;98.06;100248.16;103652;1300;22788;-26
2022/01/26 11:54:25;;;;;;;8.60;4.90;;;;;;;2.32;97.73;100251.98;103581;1300;23692;-25
2022/01/26 11:56:58;;;;;;;11.30;6.50;;;;;;;2.39;97.39;100241.49;103609;1302;24210;-25
2022/01/26 11:59:25;;;;;;;26.50;14.80;;;;;;;2.02;98.66;100244.31;103584;1299;22524;-30
2022/01/26 12:01:58;;;;;;;13.30;6.10;;;;;;;2.27;98.28;100240.02;103626;1300;24214;-31
2022/01/26 12:04:25;;;;;;;11.70;7.70;;;;;;;2.19;98.41;100241.20;103568;1300;24218;-24
2022/01/26 12:06:58;;;;;;;10.60;6.20;;;;;;;2.13;98.29;100239.87;103555;1300;24207;-25
2022/01/26 12:09:24;;;;;;;7.50;5.60;;;;;;;2.13;98.07;100240.02;103189;1300;530667;-30
2022/01/26 12:11:52;;;;;;;13.10;7.60;;;;;;;2.22;97.73;100234.53;103439;1300;24163;-25
2022/01/26 12:14:20;;;;;;;14.10;9.40;;;;;;;2.32;97.55;100235.23;103664;1300;24219;-30
2022/01/26 12:16:49;;;;;;;12.10;8.80;;;;;;;2.26;97.42;100239.71;103623;1300;24698;-30
2022/01/26 12:34:37;;;;;;;16.60;10.60;;;;;;;2.03;98.75;100241.51;103508;1303;24039;-30
2022/01/26 12:37:12;;;;;;;12.90;8.20;;;;;;;2.09;98.14;100236.09;103516;1300;24420;-26
2022/01/26 12:42:24;;;;;;;7.00;5.50;;;;;;;2.18;98.58;100228.52;103634;1300;24224;-25
2022/01/26 12:44:57;;;;;;;19.30;6.80;;;;;;;2.08;98.27;100230.25;103590;1300;24264;-30
2022/01/26 12:47:26;;;;;;;6.80;3.80;;;;;;;2.06;98.21;100230.58;103590;1300;22512;-24
2022/01/26 12:49:51;;;;;;;7.00;4.80;;;;;;;2.01;99.30;100236.79;103514;1300;24207;-29
2022/01/26 12:52:17;;;;;;;13.70;9.90;;;;;;;2.07;98.66;100238.80;103696;1300;24332;-25
2022/01/26 12:54:45;;;;;;;11.60;4.40;;;;;;;2.34;97.47;100238.38;103877;1300;22629;-30
2022/01/26 12:57:12;;;;;;;14.40;9.60;;;;;;;2.14;97.84;100232.91;103695;1300;22521;-25
2022/01/26 12:59:38;;;;;;;14.70;8.80;;;;;;;2.13;97.67;100238.83;103701;1300;24209;-30
2022/01/26 13:02:04;;;;;;;8.80;5.70;;;;;;;2.03;98.50;100246.55;103534;1300;24285;-24
2022/01/26 13:04:29;;;;;;;7.10;4.70;;;;;;;1.80;98.63;100241.41;103559;1300;24347;-25
2022/01/26 13:06:55;;;;;;;7.50;4.80;;;;;;;1.66;99.88;100241.80;103573;1300;24546;-30
2022/01/26 13:09:25;;;;;;;13.00;5.40;;;;;;;1.80;99.72;100244.23;103526;1303;24222;-24
2022/01/26 13:11:51;;;;;;;7.30;4.60;;;;;;;1.59;100.00;100244.27;103596;1300;24258;-30
2022/01/26 13:14:24;;;;;;;8.00;4.20;;;;;;;1.73;100.00;100237.18;103594;1300;24149;-23
2022/01/26 13:17:04;;;;;;;10.20;7.50;;;;;;;1.60;100.00;100243.48;103622;1302;25355;-29
2022/01/26 13:22:27;;;;;;;7.20;4.40;;;;;;;1.51;100.00;100245.63;103438;1301;22880;-29
2022/01/26 13:24:59;;;;;;;8.00;5.70;;;;;;;1.79;99.86;100244.64;103419;1301;24189;-29
2022/01/26 13:30:09;;;;;;;21.30;13.70;;;;;;;2.08;97.17;100238.54;103406;1301;24373;-30
2022/01/26 13:37:49;;;;;;;21.00;12.10;;;;;;;1.88;97.64;100232.66;103432;1300;22570;-31
2022/01/26 13:52:42;;;;;;;3.50;2.50;;;;;;;2.09;96.90;100218.32;103472;1301;24191;-31
2022/01/26 13:57:47;;;;;;;8.90;7.10;;;;;;;2.06;96.33;100219.27;103419;1301;24339;-29
2022/01/26 14:00:16;;;;;;;19.30;6.80;;;;;;;2.03;96.81;100212.59;103453;1301;24277;-29
2022/01/26 14:02:41;;;;;;;6.00;4.40;;;;;;;1.84;97.39;100213.23;103528;1301;24178;-24